createdAt,value
2023-05-16T00:00:06.981Z,98695.75
2023-05-16T00:01:39.669Z,98699.00
2023-05-16T00:03:13.051Z,98692.56
2023-05-16T00:04:47.647Z,98696.00
2023-05-16T00:06:21.188Z,98694.81
2023-05-16T00:07:54.482Z,98688.31
2023-05-16T00:09:27.841Z,98691.50
2023-05-16T00:10:59.981Z,98681.28
2023-05-16T00:12:33.197Z,98685.97
2023-05-16T00:14:06.639Z,98681.69
2023-05-16T00:15:41.195Z,98679.13
2023-05-16T00:17:14.632Z,98681.69
2023-05-16T00:18:48.340Z,98680.00
2023-05-16T00:20:23.777Z,98685.97
2023-05-16T00:21:57.040Z,98692.19
2023-05-16T00:23:30.175Z,98677.94
2023-05-16T00:25:03.689Z,98686.63
2023-05-16T00:26:37.089Z,98692.78
2023-05-16T00:28:10.289Z,98688.53
2023-05-16T00:29:43.695Z,98685.97
2023-05-16T00:31:18.403Z,98670.91
2023-05-16T00:32:51.695Z,98680.00
2023-05-16T00:34:25.397Z,98675.63
2023-05-16T00:35:57.968Z,98674.00
2023-05-16T00:37:31.151Z,98671.44
2023-05-16T00:39:04.355Z,98674.88
2023-05-16T00:40:37.474Z,98675.09
2023-05-16T00:42:10.599Z,98684.31
2023-05-16T00:43:45.124Z,98675.78
2023-05-16T00:45:19.082Z,98676.97
2023-05-16T00:46:53.854Z,98690.31
2023-05-16T00:48:27.298Z,98688.59
2023-05-16T00:49:59.677Z,98687.66
2023-05-16T00:51:32.990Z,98677.69
2023-05-16T00:53:06.289Z,98693.63
2023-05-16T00:54:39.604Z,98681.13
2023-05-16T00:56:13.002Z,98682.19
2023-05-16T00:57:45.516Z,98699.94
2023-05-16T00:59:18.821Z,98687.66
2023-05-16T01:00:52.135Z,98679.00
2023-05-16T01:02:29.136Z,98687.88
2023-05-16T01:04:02.727Z,98694.19
2023-05-16T01:05:35.932Z,98692.34
2023-05-16T01:07:09.080Z,98700.47
2023-05-16T01:08:42.325Z,98681.97
2023-05-16T01:10:16.473Z,98697.59
2023-05-16T01:11:55.206Z,98696.50
2023-05-16T01:13:34.995Z,98685.19
2023-05-16T01:15:10.988Z,98691.63
2023-05-16T01:16:50.935Z,98693.13
2023-05-16T01:18:32.227Z,98695.50
2023-05-16T01:20:15.473Z,98685.03
2023-05-16T01:21:51.328Z,98683.44
2023-05-16T01:23:43.121Z,98686.94
2023-05-16T01:25:29.148Z,98689.72
2023-05-16T01:27:06.191Z,98685.44
2023-05-16T01:28:41.360Z,98686.31
2023-05-16T01:30:19.183Z,98686.75
2023-05-16T01:31:52.461Z,98689.31
2023-05-16T01:33:27.826Z,98674.16
2023-05-16T01:35:01.349Z,98682.16
2023-05-16T01:36:42.505Z,98687.19
2023-05-16T01:38:25.181Z,98691.22
2023-05-16T01:40:07.991Z,98682.06
2023-05-16T01:41:48.760Z,98690.16
2023-05-16T01:43:32.400Z,98677.34
2023-05-16T01:45:10.202Z,98680.56
2023-05-16T01:46:47.105Z,98685.03
2023-05-16T01:48:24.123Z,98676.41
2023-05-16T01:50:04.666Z,98686.84
2023-05-16T01:51:40.793Z,98685.91
2023-05-16T01:53:20.148Z,98680.56
2023-05-16T01:54:55.487Z,98676.81
2023-05-16T01:56:29.908Z,98667.94
2023-05-16T01:58:05.719Z,98677.13
2023-05-16T01:59:42.993Z,98675.63
2023-05-16T02:01:15.828Z,98668.81
2023-05-16T02:02:49.001Z,98680.47
2023-05-16T02:04:24.456Z,98683.34
2023-05-16T02:05:57.680Z,98676.06
2023-05-16T02:07:30.958Z,98674.38
2023-05-16T02:09:03.253Z,98674.38
2023-05-16T02:10:36.610Z,98673.50
2023-05-16T02:12:09.837Z,98670.72
2023-05-16T02:13:43.034Z,98664.44
2023-05-16T02:15:17.716Z,98668.59
2023-05-16T02:16:50.967Z,98673.94
2023-05-16T02:18:24.737Z,98679.50
2023-05-16T02:19:57.854Z,98680.34
2023-05-16T02:21:31.333Z,98684.06
2023-05-16T02:23:05.013Z,98686.75
2023-05-16T02:24:38.795Z,98681.19
2023-05-16T02:26:11.913Z,98670.41
2023-05-16T02:27:45.081Z,98678.41
2023-05-16T02:29:18.574Z,98676.06
2023-05-16T02:30:59.052Z,98672.56
2023-05-16T02:32:32.251Z,98665.38
2023-05-16T02:34:05.605Z,98674.16
2023-05-16T02:35:38.902Z,98663.69
2023-05-16T02:37:13.484Z,98670.72
2023-05-16T02:38:46.715Z,98664.88
2023-05-16T02:40:20.505Z,98665.84
2023-05-16T02:41:53.814Z,98654.41
2023-05-16T02:43:27.073Z,98651.00
2023-05-16T02:45:00.265Z,98647.56
2023-05-16T02:46:35.843Z,98647.66
2023-05-16T02:48:10.668Z,98662.81
2023-05-16T02:49:44.024Z,98666.22
2023-05-16T02:51:16.174Z,98663.44
2023-05-16T02:52:49.698Z,98649.38
2023-05-16T02:54:22.976Z,98643.06
2023-05-16T02:55:55.239Z,98649.38
2023-05-16T02:57:28.372Z,98644.25
2023-05-16T02:59:01.602Z,98647.84
2023-05-16T03:00:35.367Z,98651.69
2023-05-16T03:02:10.002Z,98648.50
2023-05-16T03:03:43.445Z,98658.09
2023-05-16T03:05:17.121Z,98667.91
2023-05-16T03:06:51.288Z,98675.81
2023-05-16T03:08:24.524Z,98661.28
2023-05-16T03:09:57.611Z,98665.59
2023-05-16T03:11:29.927Z,98669.19
2023-05-16T03:13:03.261Z,98661.75
2023-05-16T03:14:36.410Z,98661.28
2023-05-16T03:16:09.724Z,98657.13
2023-05-16T03:17:44.302Z,98659.41
2023-05-16T03:19:17.703Z,98656.81
2023-05-16T03:20:53.140Z,98663.03
2023-05-16T03:22:26.325Z,98664.94
2023-05-16T03:23:59.647Z,98670.16
2023-05-16T03:25:33.194Z,98662.06
2023-05-16T03:27:06.911Z,98655.75
2023-05-16T03:28:39.066Z,98662.06
2023-05-16T03:30:14.117Z,98664.22
2023-05-16T03:31:47.477Z,98661.75
2023-05-16T03:33:22.107Z,98667.91
2023-05-16T03:34:55.195Z,98682.88
2023-05-16T03:36:29.771Z,98669.31
2023-05-16T03:38:03.165Z,98670.06
2023-05-16T03:39:36.267Z,98673.28
2023-05-16T03:41:09.407Z,98680.13
2023-05-16T03:42:42.630Z,98678.41
2023-05-16T03:44:15.903Z,98670.72
2023-05-16T03:45:48.089Z,98676.50
2023-05-16T03:47:21.251Z,98682.47
2023-05-16T03:48:55.749Z,98677.34
2023-05-16T03:50:29.297Z,98677.53
2023-05-16T03:52:02.414Z,98686.94
2023-05-16T03:53:35.560Z,98695.72
2023-05-16T03:55:09.374Z,98703.63
2023-05-16T03:56:42.657Z,98702.53
2023-05-16T03:58:16.637Z,98691.84
2023-05-16T03:59:49.796Z,98701.25
2023-05-16T04:01:22.895Z,98704.88
2023-05-16T04:02:56.264Z,98700.16
2023-05-16T04:04:30.930Z,98702.41
2023-05-16T04:06:04.311Z,98697.47
2023-05-16T04:07:37.727Z,98697.16
2023-05-16T04:09:11.022Z,98693.28
2023-05-16T04:10:44.211Z,98686.88
2023-05-16T04:12:16.645Z,98682.13
2023-05-16T04:13:50.133Z,98691.88
2023-05-16T04:15:22.444Z,98692.00
2023-05-16T04:16:55.630Z,98700.75
2023-05-16T04:18:28.806Z,98695.41
2023-05-16T04:20:04.404Z,98692.66
2023-05-16T04:21:37.755Z,98699.75
2023-05-16T04:23:12.106Z,98693.44
2023-05-16T04:24:45.231Z,98685.63
2023-05-16T04:26:18.396Z,98704.63
2023-05-16T04:27:50.947Z,98711.44
2023-05-16T04:29:24.168Z,98714.38
2023-05-16T04:30:57.301Z,98706.34
2023-05-16T04:32:30.659Z,98699.75
2023-05-16T04:34:03.985Z,98706.16
2023-05-16T04:35:38.770Z,98703.81
2023-05-16T04:37:11.987Z,98705.09
2023-05-16T04:38:46.939Z,98706.34
2023-05-16T04:40:19.370Z,98712.00
2023-05-16T04:41:53.037Z,98719.78
2023-05-16T04:43:26.386Z,98713.47
2023-05-16T04:44:59.605Z,98711.53
2023-05-16T04:46:32.867Z,98715.94
2023-05-16T04:48:06.345Z,98715.72
2023-05-16T04:49:39.668Z,98720.81
2023-05-16T04:51:14.313Z,98725.72
2023-05-16T04:52:47.500Z,98724.53
2023-05-16T04:54:20.837Z,98718.69
2023-05-16T04:55:54.483Z,98721.44
2023-05-16T04:57:28.376Z,98716.09
2023-05-16T04:59:01.718Z,98716.63
2023-05-16T05:00:34.925Z,98724.22
2023-05-16T05:02:08.325Z,98713.16
2023-05-16T05:03:41.558Z,98712.81
2023-05-16T05:05:15.022Z,98709.16
2023-05-16T05:06:49.611Z,98710.03
2023-05-16T05:08:23.520Z,98712.38
2023-05-16T05:09:57.083Z,98713.84
2023-05-16T05:11:30.245Z,98704.41
2023-05-16T05:13:03.751Z,98707.34
2023-05-16T05:14:35.899Z,98706.91
2023-05-16T05:16:09.059Z,98694.25
2023-05-16T05:17:42.298Z,98703.88
2023-05-16T05:19:15.498Z,98697.41
2023-05-16T05:20:48.818Z,98707.19
2023-05-16T05:22:23.328Z,98706.19
2023-05-16T05:23:56.508Z,98703.53
2023-05-16T05:25:29.753Z,98709.63
2023-05-16T05:27:03.249Z,98713.66
2023-05-16T05:28:37.800Z,98711.81
2023-05-16T05:30:11.705Z,98714.25
2023-05-16T05:31:44.963Z,98717.69
2023-05-16T05:33:19.294Z,98717.44
2023-05-16T05:34:52.654Z,98721.72
2023-05-16T05:36:25.975Z,98720.97
2023-05-16T05:38:00.567Z,98730.69
2023-05-16T05:39:33.761Z,98729.28
2023-05-16T05:41:07.571Z,98728.06
2023-05-16T05:42:40.768Z,98720.78
2023-05-16T05:44:13.972Z,98716.25
2023-05-16T05:45:47.559Z,98715.09
2023-05-16T05:47:21.807Z,98715.84
2023-05-16T05:48:54.965Z,98708.66
2023-05-16T05:50:28.200Z,98709.50
2023-05-16T05:52:01.422Z,98712.19
2023-05-16T05:53:36.265Z,98708.06
2023-05-16T05:55:10.170Z,98707.72
2023-05-16T05:56:43.268Z,98701.13
2023-05-16T05:58:18.224Z,98701.03
2023-05-16T05:59:51.520Z,98700.03
2023-05-16T06:01:24.959Z,98714.41
2023-05-16T06:02:58.187Z,98704.28
2023-05-16T06:04:31.415Z,98713.69
2023-05-16T06:06:06.043Z,98719.44
2023-05-16T06:07:39.355Z,98709.94
2023-05-16T06:09:15.106Z,98717.34
2023-05-16T06:10:49.146Z,98710.06
2023-05-16T06:12:22.318Z,98713.47
2023-05-16T06:13:55.718Z,98708.34
2023-05-16T06:15:29.059Z,98705.88
2023-05-16T06:17:02.704Z,98707.63
2023-05-16T06:18:35.918Z,98705.88
2023-05-16T06:20:09.967Z,98710.53
2023-05-16T06:21:43.299Z,98711.72
2023-05-16T06:23:16.796Z,98708.69
2023-05-16T06:24:51.630Z,98704.13
2023-05-16T06:26:24.851Z,98713.28
2023-05-16T06:27:58.056Z,98709.09
2023-05-16T06:29:31.624Z,98700.19
2023-05-16T06:31:04.957Z,98708.66
2023-05-16T06:32:38.490Z,98697.03
2023-05-16T06:34:11.739Z,98699.97
2023-05-16T06:35:45.197Z,98706.09
2023-05-16T06:37:18.419Z,98701.44
2023-05-16T06:38:51.902Z,98704.22
2023-05-16T06:40:26.475Z,98701.44
2023-05-16T06:41:59.866Z,98709.97
2023-05-16T06:43:38.307Z,98704.59
2023-05-16T06:45:12.276Z,98704.59
2023-05-16T06:46:45.625Z,98707.41
2023-05-16T06:48:20.394Z,98704.84
2023-05-16T06:49:53.708Z,98701.19
2023-05-16T06:51:26.949Z,98708.00
2023-05-16T06:53:00.790Z,98705.78
2023-05-16T06:54:34.237Z,98699.31
2023-05-16T06:56:08.969Z,98695.53
2023-05-16T06:57:42.142Z,98698.78
2023-05-16T06:59:15.390Z,98694.28
2023-05-16T07:00:51.407Z,98692.06
2023-05-16T07:02:24.636Z,98695.22
2023-05-16T07:03:58.132Z,98694.94
2023-05-16T07:05:31.515Z,98694.34
2023-05-16T07:07:04.976Z,98677.63
2023-05-16T07:08:38.292Z,98695.47
2023-05-16T07:10:12.528Z,98688.13
2023-05-16T07:11:47.109Z,98690.94
2023-05-16T07:13:20.722Z,98699.47
2023-05-16T07:14:54.136Z,98699.22
2023-05-16T07:16:28.617Z,98689.09
2023-05-16T07:18:02.092Z,98698.22
2023-05-16T07:19:35.593Z,98692.34
2023-05-16T07:21:08.748Z,98703.25
2023-05-16T07:22:42.219Z,98714.00
2023-05-16T07:24:15.367Z,98706.41
2023-05-16T07:25:49.156Z,98705.88
2023-05-16T07:27:23.862Z,98713.88
2023-05-16T07:28:57.169Z,98723.81
2023-05-16T07:30:30.683Z,98710.84
2023-05-16T07:32:04.402Z,98710.59
2023-05-16T07:33:37.598Z,98704.38
2023-05-16T07:35:13.408Z,98694.72
2023-05-16T07:36:46.609Z,98691.59
2023-05-16T07:38:20.203Z,98704.28
2023-05-16T07:39:53.407Z,98697.22
2023-05-16T07:41:27.179Z,98704.56
2023-05-16T07:43:02.857Z,98706.97
2023-05-16T07:44:36.525Z,98707.47
2023-05-16T07:46:09.736Z,98712.56
2023-05-16T07:47:42.995Z,98715.69
2023-05-16T07:49:16.266Z,98714.13
2023-05-16T07:50:49.881Z,98711.03
2023-05-16T07:52:23.025Z,98718.84
2023-05-16T07:53:56.198Z,98720.81
2023-05-16T07:55:29.625Z,98710.06
2023-05-16T07:57:03.431Z,98702.00
2023-05-16T07:58:40.093Z,98706.41
2023-05-16T08:00:14.844Z,98697.34
2023-05-16T08:01:48.189Z,98721.25
2023-05-16T08:03:21.954Z,98713.19
2023-05-16T08:04:55.442Z,98719.69
2023-05-16T08:06:29.849Z,98712.56
2023-05-16T08:08:03.016Z,98705.28
2023-05-16T08:09:36.462Z,98711.78
2023-05-16T08:11:09.669Z,98710.22
2023-05-16T08:12:43.056Z,98712.16
2023-05-16T08:14:17.644Z,98706.78
2023-05-16T08:15:51.308Z,98703.41
2023-05-16T08:17:24.474Z,98694.47
2023-05-16T08:18:57.820Z,98694.84
2023-05-16T08:20:31.063Z,98717.22
2023-05-16T08:22:04.340Z,98722.84
2023-05-16T08:23:37.568Z,98728.47
2023-05-16T08:25:11.196Z,98715.75
2023-05-16T08:26:44.341Z,98702.47
2023-05-16T08:28:17.916Z,98687.09
2023-05-16T08:29:52.493Z,98690.03
2023-05-16T08:31:25.909Z,98690.72
2023-05-16T08:32:59.164Z,98696.34
2023-05-16T08:34:33.079Z,98704.28
2023-05-16T08:36:07.220Z,98707.84
2023-05-16T08:37:40.524Z,98718.31
2023-05-16T08:39:13.911Z,98716.63
2023-05-16T08:40:47.413Z,98721.00
2023-05-16T08:42:20.800Z,98707.31
2023-05-16T08:43:54.173Z,98706.34
2023-05-16T08:45:29.803Z,98710.00
2023-05-16T08:47:12.367Z,98706.78
2023-05-16T08:48:48.528Z,98701.75
2023-05-16T08:50:22.805Z,98698.66
2023-05-16T08:51:59.388Z,98696.09
2023-05-16T08:53:37.585Z,98707.19
2023-05-16T08:55:12.295Z,98714.44
2023-05-16T08:56:46.902Z,98714.91
2023-05-16T08:58:21.669Z,98701.66
2023-05-16T08:59:59.261Z,98694.34
2023-05-16T09:01:34.448Z,98694.44
2023-05-16T09:03:08.110Z,98699.28
2023-05-16T09:04:42.578Z,98701.56
2023-05-16T09:06:16.170Z,98689.97
2023-05-16T09:07:49.382Z,98689.38
2023-05-16T09:09:22.544Z,98702.09
2023-05-16T09:10:56.271Z,98701.25
2023-05-16T09:12:29.811Z,98708.34
2023-05-16T09:14:02.985Z,98704.91
2023-05-16T09:15:36.210Z,98702.09
2023-05-16T09:17:12.984Z,98698.28
2023-05-16T09:18:50.615Z,98688.00
2023-05-16T09:20:23.865Z,98680.22
2023-05-16T09:21:57.141Z,98689.13
2023-05-16T09:23:30.857Z,98692.53
2023-05-16T09:25:06.949Z,98684.91
2023-05-16T09:26:41.988Z,98691.31
2023-05-16T09:28:15.661Z,98699.97
2023-05-16T09:29:52.976Z,98692.03
2023-05-16T09:31:30.801Z,98694.44
2023-05-16T09:33:08.200Z,98697.72
2023-05-16T09:34:45.364Z,98694.19
2023-05-16T09:36:18.910Z,98702.84
2023-05-16T09:37:53.541Z,98712.22
2023-05-16T09:39:27.842Z,98708.94
2023-05-16T09:41:01.067Z,98707.09
2023-05-16T09:42:34.646Z,98704.84
2023-05-16T09:44:08.323Z,98703.75
2023-05-16T09:45:47.860Z,98700.38
2023-05-16T09:47:22.186Z,98695.84
2023-05-16T09:48:57.395Z,98698.25
2023-05-16T09:50:30.762Z,98681.81
2023-05-16T09:52:04.756Z,98685.94
2023-05-16T09:53:39.942Z,98686.38
2023-05-16T09:55:13.150Z,98682.53
2023-05-16T09:56:52.850Z,98683.06
2023-05-16T09:58:30.269Z,98683.81
2023-05-16T10:00:08.455Z,98684.81
2023-05-16T10:01:42.542Z,98673.59
2023-05-16T10:03:17.094Z,98680.38
2023-05-16T10:04:51.733Z,98678.16
2023-05-16T10:06:25.246Z,98662.69
2023-05-16T10:07:59.055Z,98665.81
2023-05-16T10:09:33.896Z,98657.28
2023-05-16T10:11:07.883Z,98650.50
2023-05-16T10:12:42.316Z,98658.56
2023-05-16T10:14:19.009Z,98663.25
2023-05-16T10:15:55.760Z,98650.34
2023-05-16T10:17:32.451Z,98653.19
2023-05-16T10:19:06.616Z,98645.41
2023-05-16T10:20:43.990Z,98646.34
2023-05-16T10:22:18.284Z,98648.50
2023-05-16T10:23:53.774Z,98651.31
2023-05-16T10:25:33.352Z,98640.66
2023-05-16T10:27:07.332Z,98637.38
2023-05-16T10:28:41.756Z,98634.84
2023-05-16T10:30:17.453Z,98630.56
2023-05-16T10:31:51.076Z,98620.50
2023-05-16T10:33:24.807Z,98617.47
2023-05-16T10:35:01.285Z,98608.81
2023-05-16T10:36:36.034Z,98602.13
2023-05-16T10:38:12.124Z,98606.22
2023-05-16T10:39:46.026Z,98603.78
2023-05-16T10:41:22.037Z,98607.72
2023-05-16T10:42:58.510Z,98610.84
2023-05-16T10:44:33.902Z,98612.81
2023-05-16T10:46:12.335Z,98614.53
2023-05-16T10:47:53.503Z,98617.06
2023-05-16T10:49:28.925Z,98612.03
2023-05-16T10:51:04.124Z,98612.19
2023-05-16T10:52:38.837Z,98602.38
2023-05-16T10:54:15.104Z,98609.53
2023-05-16T10:56:06.302Z,98600.72
2023-05-16T10:57:40.052Z,98614.34
2023-05-16T10:59:27.209Z,98606.84
2023-05-16T11:01:34.303Z,98596.88
2023-05-16T11:03:08.088Z,98593.06
2023-05-16T11:04:49.711Z,98581.47
2023-05-16T11:06:24.904Z,98574.66
2023-05-16T11:08:07.382Z,98568.47
2023-05-16T11:09:45.508Z,98561.63
2023-05-16T11:11:50.036Z,98546.59
2023-05-16T11:13:26.135Z,98560.44
2023-05-16T11:15:00.716Z,98553.59
2023-05-16T11:16:35.804Z,98543.91
2023-05-16T11:18:11.287Z,98540.63
2023-05-16T11:19:46.128Z,98547.50
2023-05-16T11:21:19.312Z,98557.69
2023-05-16T11:22:52.886Z,98554.44
2023-05-16T11:24:31.530Z,98564.22
2023-05-16T11:26:04.876Z,98565.47
2023-05-16T11:27:45.341Z,98564.84
2023-05-16T11:29:18.918Z,98561.22
2023-05-16T11:30:55.315Z,98557.44
2023-05-16T11:32:28.718Z,98555.34
2023-05-16T11:34:02.171Z,98554.59
2023-05-16T11:35:35.435Z,98552.28
2023-05-16T11:37:11.748Z,98547.66
2023-05-16T11:38:44.971Z,98543.25
2023-05-16T11:40:19.552Z,98549.00
2023-05-16T11:41:55.862Z,98547.88
2023-05-16T11:43:29.167Z,98535.38
2023-05-16T11:45:07.427Z,98532.00
2023-05-16T11:46:41.920Z,98527.69
2023-05-16T11:48:24.696Z,98523.38
2023-05-16T11:49:59.125Z,98528.69
2023-05-16T11:51:32.540Z,98522.34
2023-05-16T11:53:05.749Z,98519.03
2023-05-16T11:54:39.578Z,98512.41
2023-05-16T11:56:14.350Z,98517.16
2023-05-16T11:57:48.031Z,98514.84
2023-05-16T11:59:21.782Z,98513.94
2023-05-16T12:00:56.022Z,98505.72
2023-05-16T12:02:31.147Z,98505.72
2023-05-16T12:04:09.236Z,98510.63
2023-05-16T12:05:53.376Z,98512.81
2023-05-16T12:07:29.567Z,98515.28
2023-05-16T12:09:10.263Z,98513.72
2023-05-16T12:10:43.722Z,98509.53
2023-05-16T12:12:22.063Z,98518.03
2023-05-16T12:13:55.891Z,98523.28
2023-05-16T12:15:29.904Z,98515.44
2023-05-16T12:17:04.826Z,98519.13
2023-05-16T12:18:41.217Z,98525.47
2023-05-16T12:20:17.465Z,98522.91
2023-05-16T12:21:54.398Z,98519.84
2023-05-16T12:23:29.367Z,98535.50
2023-05-16T12:25:27.744Z,98522.41
2023-05-16T12:27:01.383Z,98527.56
2023-05-16T12:28:39.327Z,98519.88
2023-05-16T12:30:13.760Z,98511.97
2023-05-16T12:31:47.401Z,98514.56
2023-05-16T12:33:21.976Z,98514.94
2023-05-16T12:34:56.333Z,98517.34
2023-05-16T12:36:33.552Z,98516.63
2023-05-16T12:38:07.896Z,98522.41
2023-05-16T12:39:41.096Z,98521.25
2023-05-16T12:41:19.334Z,98521.03
2023-05-16T12:42:53.190Z,98530.34
2023-05-16T12:44:31.631Z,98533.94
2023-05-16T12:46:11.776Z,98538.03
2023-05-16T12:47:45.273Z,98527.03
2023-05-16T12:49:21.791Z,98531.59
2023-05-16T12:50:55.417Z,98533.63
2023-05-16T12:52:30.594Z,98528.22
2023-05-16T12:54:11.248Z,98534.31
2023-05-16T12:55:45.508Z,98536.03
2023-05-16T12:57:20.109Z,98534.69
2023-05-16T12:58:53.364Z,98535.31
2023-05-16T13:00:28.112Z,98533.94
2023-05-16T13:02:01.574Z,98542.38
2023-05-16T13:03:36.391Z,98543.38
2023-05-16T13:05:10.437Z,98544.56
2023-05-16T13:06:56.528Z,98543.38
2023-05-16T13:08:32.080Z,98539.97
2023-05-16T13:10:06.476Z,98538.31
2023-05-16T13:11:39.679Z,98539.97
2023-05-16T13:13:15.167Z,98541.88
2023-05-16T13:14:52.644Z,98541.00
2023-05-16T13:16:27.565Z,98540.34
2023-05-16T13:18:00.729Z,98530.84
2023-05-16T13:19:34.549Z,98524.28
2023-05-16T13:21:07.979Z,98533.22
2023-05-16T13:22:42.153Z,98535.25
2023-05-16T13:24:15.383Z,98521.03
2023-05-16T13:25:49.663Z,98520.06
2023-05-16T13:27:23.025Z,98521.97
2023-05-16T13:28:57.021Z,98518.13
2023-05-16T13:30:30.765Z,98510.91
2023-05-16T13:32:08.786Z,98512.81
2023-05-16T13:33:41.961Z,98509.13
2023-05-16T13:35:16.183Z,98513.53
2023-05-16T13:36:54.399Z,98506.41
2023-05-16T13:38:28.211Z,98519.47
2023-05-16T13:40:01.464Z,98519.47
2023-05-16T13:41:37.818Z,98509.50
2023-05-16T13:43:11.267Z,98502.03
2023-05-16T13:44:45.004Z,98508.81
2023-05-16T13:46:19.037Z,98503.06
2023-05-16T13:47:53.940Z,98516.78
2023-05-16T13:49:30.104Z,98513.56
2023-05-16T13:51:03.319Z,98514.59
2023-05-16T13:52:37.847Z,98512.72
2023-05-16T13:54:11.827Z,98511.91
2023-05-16T13:55:45.138Z,98513.41
2023-05-16T13:57:18.329Z,98509.84
2023-05-16T13:59:02.238Z,98505.13
2023-05-16T14:00:45.102Z,98508.00
2023-05-16T14:02:19.410Z,98512.53
2023-05-16T14:03:54.007Z,98511.88
2023-05-16T14:05:27.451Z,98511.19
2023-05-16T14:07:01.396Z,98517.94
2023-05-16T14:08:34.861Z,98521.69
2023-05-16T14:10:09.836Z,98516.09
2023-05-16T14:11:43.014Z,98518.66
2023-05-16T14:13:16.375Z,98518.97
2023-05-16T14:14:49.735Z,98512.22
2023-05-16T14:16:23.063Z,98513.06
2023-05-16T14:17:56.304Z,98514.91
2023-05-16T14:19:31.549Z,98513.22
2023-05-16T14:21:05.036Z,98509.16
2023-05-16T14:22:38.586Z,98500.34
2023-05-16T14:24:12.043Z,98495.94
2023-05-16T14:25:45.439Z,98492.84
2023-05-16T14:27:18.670Z,98490.84
2023-05-16T14:28:51.881Z,98487.09
2023-05-16T14:30:25.012Z,98478.25
2023-05-16T14:31:58.369Z,98479.75
2023-05-16T14:33:33.067Z,98474.81
2023-05-16T14:35:09.610Z,98471.13
2023-05-16T14:36:43.750Z,98471.78
2023-05-16T14:38:17.152Z,98479.22
2023-05-16T14:39:50.756Z,98473.81
2023-05-16T14:41:23.886Z,98482.28
2023-05-16T14:42:57.175Z,98478.56
2023-05-16T14:44:30.755Z,98478.56
2023-05-16T14:46:03.931Z,98490.06
2023-05-16T14:47:37.803Z,98477.41
2023-05-16T14:49:11.203Z,98475.53
2023-05-16T14:50:46.161Z,98469.13
2023-05-16T14:52:19.405Z,98469.13
2023-05-16T14:53:52.579Z,98471.84
2023-05-16T14:55:26.046Z,98472.84
2023-05-16T14:57:00.237Z,98472.69
2023-05-16T14:58:34.827Z,98469.31
2023-05-16T15:00:10.834Z,98470.44
2023-05-16T15:01:44.008Z,98468.09
2023-05-16T15:03:18.344Z,98491.72
2023-05-16T15:04:51.832Z,98489.50
2023-05-16T15:06:26.462Z,98513.03
2023-05-16T15:08:00.611Z,98502.19
2023-05-16T15:09:34.027Z,98505.88
2023-05-16T15:11:07.226Z,98502.69
2023-05-16T15:12:41.149Z,98505.84
2023-05-16T15:14:14.415Z,98496.03
2023-05-16T15:15:47.937Z,98507.16
2023-05-16T15:17:21.231Z,98508.09
2023-05-16T15:18:54.607Z,98513.47
2023-05-16T15:20:28.293Z,98507.84
2023-05-16T15:22:03.549Z,98501.22
2023-05-16T15:23:36.863Z,98496.44
2023-05-16T15:25:10.963Z,98500.44
2023-05-16T15:26:44.582Z,98497.06
2023-05-16T15:28:21.821Z,98502.47
2023-05-16T15:29:55.805Z,98493.97
2023-05-16T15:31:29.717Z,98498.53
2023-05-16T15:33:03.018Z,98501.41
2023-05-16T15:34:36.882Z,98492.75
2023-05-16T15:36:10.120Z,98485.81
2023-05-16T15:37:44.902Z,98488.91
2023-05-16T15:39:18.113Z,98491.47
2023-05-16T15:41:01.545Z,98481.47
2023-05-16T15:42:45.408Z,98483.50
2023-05-16T15:44:18.547Z,98478.41
2023-05-16T15:45:51.916Z,98480.91
2023-05-16T15:47:25.285Z,98481.38
2023-05-16T15:48:58.607Z,98480.59
2023-05-16T15:50:31.893Z,98476.53
2023-05-16T15:52:05.604Z,98479.53
2023-05-16T15:53:40.452Z,98479.53
2023-05-16T15:55:13.656Z,98472.44
2023-05-16T15:56:46.984Z,98467.06
2023-05-16T15:58:22.637Z,98456.25
2023-05-16T15:59:56.034Z,98450.66
2023-05-16T16:01:29.496Z,98453.50
2023-05-16T16:03:02.988Z,98453.81
2023-05-16T16:04:36.322Z,98448.72
2023-05-16T16:06:09.547Z,98459.50
2023-05-16T16:07:43.070Z,98454.09
2023-05-16T16:09:18.523Z,98450.41
2023-05-16T16:10:52.098Z,98451.03
2023-05-16T16:12:25.300Z,98454.81
2023-05-16T16:13:58.567Z,98460.88
2023-05-16T16:15:33.506Z,98458.25
2023-05-16T16:17:07.229Z,98467.25
2023-05-16T16:18:40.499Z,98465.47
2023-05-16T16:20:13.770Z,98466.34
2023-05-16T16:21:47.215Z,98468.94
2023-05-16T16:23:20.742Z,98463.34
2023-05-16T16:24:56.146Z,98470.84
2023-05-16T16:26:29.491Z,98464.91
2023-05-16T16:28:02.713Z,98479.72
2023-05-16T16:29:36.098Z,98482.88
2023-05-16T16:31:09.336Z,98482.31
2023-05-16T16:32:42.576Z,98484.44
2023-05-16T16:34:15.778Z,98474.50
2023-05-16T16:35:49.228Z,98481.59
2023-05-16T16:37:22.351Z,98481.94
2023-05-16T16:38:56.301Z,98490.69
2023-05-16T16:40:31.118Z,98485.31
2023-05-16T16:42:04.505Z,98492.72
2023-05-16T16:43:39.845Z,98494.56
2023-05-16T16:45:13.244Z,98486.31
2023-05-16T16:46:46.490Z,98496.50
2023-05-16T16:48:19.932Z,98494.59
2023-05-16T16:49:53.406Z,98486.19
2023-05-16T16:51:29.985Z,98495.28
2023-05-16T16:53:04.558Z,98489.13
2023-05-16T16:54:37.994Z,98488.00
2023-05-16T16:56:12.542Z,98495.72
2023-05-16T16:57:45.883Z,98485.53
2023-05-16T16:59:19.463Z,98489.53
2023-05-16T17:00:53.225Z,98496.94
2023-05-16T17:02:27.208Z,98492.75
2023-05-16T17:04:00.828Z,98491.66
2023-05-16T17:05:34.026Z,98486.56
2023-05-16T17:07:07.675Z,98485.19
2023-05-16T17:08:40.860Z,98493.97
2023-05-16T17:10:14.199Z,98486.34
2023-05-16T17:11:49.139Z,98490.91
2023-05-16T17:13:22.578Z,98491.03
2023-05-16T17:14:56.282Z,98494.34
2023-05-16T17:16:29.860Z,98504.25
2023-05-16T17:18:05.228Z,98495.50
2023-05-16T17:19:38.855Z,98503.28
2023-05-16T17:21:13.351Z,98509.25
2023-05-16T17:22:48.371Z,98518.34
2023-05-16T17:24:21.802Z,98510.28
2023-05-16T17:25:55.267Z,98514.94
2023-05-16T17:27:29.862Z,98519.03
2023-05-16T17:29:04.361Z,98519.38
2023-05-16T17:30:37.678Z,98526.44
2023-05-16T17:32:10.959Z,98523.03
2023-05-16T17:33:44.562Z,98524.03
2023-05-16T17:35:18.411Z,98528.72
2023-05-16T17:36:51.612Z,98530.31
2023-05-16T17:38:25.299Z,98530.59
2023-05-16T17:39:58.698Z,98534.97
2023-05-16T17:41:32.540Z,98524.34
2023-05-16T17:43:07.107Z,98533.28
2023-05-16T17:44:41.241Z,98533.00
2023-05-16T17:46:14.563Z,98529.28
2023-05-16T17:47:47.928Z,98531.28
2023-05-16T17:49:21.769Z,98530.44
2023-05-16T17:50:56.075Z,98528.59
2023-05-16T17:52:29.407Z,98529.28
2023-05-16T17:54:03.896Z,98522.91
2023-05-16T17:55:38.509Z,98525.34
2023-05-16T17:57:13.176Z,98538.66
2023-05-16T17:58:47.771Z,98533.13
2023-05-16T18:00:22.626Z,98537.53
2023-05-16T18:01:57.463Z,98527.44
2023-05-16T18:03:31.182Z,98526.03
2023-05-16T18:05:04.687Z,98519.94
2023-05-16T18:06:38.926Z,98528.72
2023-05-16T18:08:12.082Z,98528.03
2023-05-16T18:09:45.642Z,98529.59
2023-05-16T18:11:19.168Z,98525.78
2023-05-16T18:12:52.470Z,98531.47
2023-05-16T18:14:27.190Z,98532.75
2023-05-16T18:16:00.627Z,98534.34
2023-05-16T18:17:34.639Z,98540.44
2023-05-16T18:19:08.848Z,98527.13
2023-05-16T18:20:42.971Z,98533.94
2023-05-16T18:22:16.306Z,98536.53
2023-05-16T18:23:49.863Z,98536.53
2023-05-16T18:25:23.153Z,98535.94
2023-05-16T18:26:56.280Z,98528.31
2023-05-16T18:28:29.924Z,98521.53
2023-05-16T18:30:05.699Z,98525.47